Time;durP1;ratioP1;P1;durP2;ratioP2;P2;SDS_P1;SDS_P2;PMS_P1;PMS_P2;Temp;Humidity;BMP_temperature;BMP_pressure;BME280_temperature;BME280_humidity;BME280_pressure;Samples;Min_cycle;Max_cycle;Signal;HPM_P1;HPM_P2
2023/06/26 00:02:15;;;;;;;12.10;8.60;;;;;;;16.33;70.95;100642.66;106684;1256;99132;-80
2023/06/26 00:05:02;;;;;;;11.50;8.70;;;;;;;16.33;70.75;100645.41;107012;1254;98271;-80
2023/06/26 00:07:48;;;;;;;10.40;8.60;;;;;;;16.31;70.97;100643.71;106963;1254;96575;-82
2023/06/26 00:10:34;;;;;;;10.90;8.40;;;;;;;16.27;71.70;100641.69;107186;1264;96637;-81
2023/06/26 00:13:20;;;;;;;14.70;8.40;;;;;;;16.25;71.50;100642.98;107142;1254;101200;-81
2023/06/26 00:16:05;;;;;;;11.80;8.20;;;;;;;16.23;71.44;100644.25;107185;1253;99116;-81
2023/06/26 00:18:51;;;;;;;11.50;8.00;;;;;;;16.19;71.63;100642.89;107105;1257;99016;-80
2023/06/26 00:21:36;;;;;;;10.00;7.90;;;;;;;16.15;71.64;100641.84;106997;1256;96402;-81
2023/06/26 00:24:22;;;;;;;9.90;7.40;;;;;;;16.12;71.87;100650.25;107123;1254;97144;-81
2023/06/26 00:27:08;;;;;;;12.90;8.30;;;;;;;15.91;71.27;100649.68;107009;1257;101267;-80
2023/06/26 00:29:53;;;;;;;11.50;7.30;;;;;;;15.76;71.73;100645.11;107096;1251;99235;-81
2023/06/26 00:32:39;;;;;;;9.60;7.50;;;;;;;15.73;72.27;100647.92;106967;1254;98443;-81
2023/06/26 00:35:24;;;;;;;10.10;7.10;;;;;;;15.69;72.35;100642.92;106867;1260;96541;-81
2023/06/26 00:38:09;;;;;;;13.40;7.70;;;;;;;15.64;72.43;100642.63;107042;1257;96571;-81
2023/06/26 00:40:57;;;;;;;12.30;8.20;;;;;;;15.61;72.31;100643.98;106904;1254;99979;-81
2023/06/26 00:43:42;;;;;;;9.50;7.40;;;;;;;15.60;72.36;100641.16;106928;1256;100382;-81
2023/06/26 00:46:29;;;;;;;13.80;8.00;;;;;;;15.60;72.54;100642.15;106959;1266;97784;-81
2023/06/26 00:49:15;;;;;;;10.70;8.00;;;;;;;15.59;72.95;100639.13;107029;1254;96514;-81
2023/06/26 00:52:01;;;;;;;11.20;8.80;;;;;;;15.58;72.95;100639.85;106923;1252;96795;-81
2023/06/26 00:54:48;;;;;;;11.70;8.40;;;;;;;15.56;72.90;100637.20;107032;1257;100103;-81
2023/06/26 00:57:33;;;;;;;10.70;8.40;;;;;;;15.56;72.94;100632.66;106927;1259;100499;-80
2023/06/26 01:00:20;;;;;;;11.80;9.10;;;;;;;15.57;72.95;100629.67;106851;1257;98328;-80
2023/06/26 01:03:05;;;;;;;12.50;8.60;;;;;;;15.58;72.72;100633.58;106821;1257;96603;-81
2023/06/26 01:05:59;;;;;;;12.70;8.20;;;;;;;15.57;72.73;100630.92;106949;1257;95880;-81
2023/06/26 01:08:45;;;;;;;13.00;8.60;;;;;;;15.58;73.02;100626.67;107033;1251;101272;-80
2023/06/26 01:11:30;;;;;;;12.80;8.90;;;;;;;15.57;73.15;100624.02;106958;1254;100014;-81
2023/06/26 01:14:18;;;;;;;13.80;9.30;;;;;;;15.56;73.10;100621.65;106888;1254;97720;-81
2023/06/26 01:17:05;;;;;;;14.00;8.80;;;;;;;15.54;73.00;100618.51;106963;1254;97209;-81
2023/06/26 01:19:52;;;;;;;11.00;8.40;;;;;;;15.52;73.01;100617.52;108172;1254;96560;-82
2023/06/26 01:22:47;;;;;;;12.00;8.10;;;;;;;15.50;73.01;100616.09;106961;1254;100012;-81
2023/06/26 01:25:40;;;;;;;15.60;7.90;;;;;;;15.48;73.00;100616.52;107066;1257;100343;-81
2023/06/26 01:28:27;;;;;;;9.40;8.00;;;;;;;15.48;72.92;100614.73;106957;1258;97794;-81
2023/06/26 01:31:15;;;;;;;12.00;7.90;;;;;;;15.46;72.85;100612.73;106853;1260;96504;-81
2023/06/26 01:34:01;;;;;;;11.80;8.20;;;;;;;15.43;72.90;100610.82;106978;1256;97128;-82
2023/06/26 01:36:46;;;;;;;10.90;8.30;;;;;;;15.37;72.64;100606.61;107017;1255;100986;-81
2023/06/26 01:39:32;;;;;;;12.00;8.20;;;;;;;15.30;72.49;100606.16;107002;1251;99155;-82
2023/06/26 01:42:17;;;;;;;12.60;7.80;;;;;;;15.25;72.82;100605.21;106931;1257;97685;-81
2023/06/26 01:45:29;;;;;;;10.90;7.70;;;;;;;15.20;72.65;100604.76;107056;1253;96667;-81
2023/06/26 01:48:19;;;;;;;11.90;8.80;;;;;;;15.10;72.87;100605.55;106957;1254;96672;-80
2023/06/26 01:51:07;;;;;;;13.00;8.10;;;;;;;15.05;72.78;100606.88;107062;1254;100109;-81
2023/06/26 01:53:56;;;;;;;11.20;8.50;;;;;;;15.03;72.96;100606.75;107064;1254;99071;-81
2023/06/26 01:56:44;;;;;;;10.40;7.80;;;;;;;15.02;72.96;100605.84;106987;1253;98918;-82
2023/06/26 01:59:32;;;;;;;10.80;8.00;;;;;;;15.01;73.30;100603.80;107036;1254;96609;-81
2023/06/26 02:02:18;;;;;;;12.10;8.20;;;;;;;15.00;73.21;100606.32;107043;1257;97142;-81
2023/06/26 02:05:03;;;;;;;14.00;7.60;;;;;;;14.97;73.15;100603.30;107026;1256;100649;-80
2023/06/26 02:07:49;;;;;;;10.90;7.90;;;;;;;14.97;73.37;100602.58;107102;1254;100328;-81
2023/06/26 02:10:35;;;;;;;12.40;8.10;;;;;;;15.02;73.48;100604.02;107089;1255;97748;-81
2023/06/26 02:13:20;;;;;;;12.40;8.00;;;;;;;15.08;73.59;100602.79;107063;1254;96609;-81
2023/06/26 02:16:05;;;;;;;10.70;8.10;;;;;;;15.13;73.50;100599.73;107019;1257;97406;-81
2023/06/26 02:18:51;;;;;;;10.50;7.70;;;;;;;15.17;73.49;100600.46;107045;1257;99976;-81
2023/06/26 02:21:36;;;;;;;15.70;8.70;;;;;;;15.20;73.18;100594.41;106963;1256;100382;-80
2023/06/26 02:24:22;;;;;;;15.20;9.10;;;;;;;15.22;73.03;100595.90;107027;1254;97712;-82
2023/06/26 02:27:08;;;;;;;10.20;8.20;;;;;;;15.25;73.19;100592.88;107046;1254;96511;-80
2023/06/26 02:29:55;;;;;;;11.50;8.00;;;;;;;15.28;73.12;100590.70;107368;1254;98271;-81
2023/06/26 02:32:41;;;;;;;12.00;8.10;;;;;;;15.29;72.91;100588.96;107049;1257;100006;-81
2023/06/26 02:35:26;;;;;;;14.40;8.20;;;;;;;15.29;72.79;100587.60;107031;1254;99114;-80
2023/06/26 02:38:12;;;;;;;12.20;8.10;;;;;;;15.29;72.74;100588.10;107048;1256;97761;-81
2023/06/26 02:40:59;;;;;;;14.60;7.80;;;;;;;15.29;72.53;100586.97;107026;1255;95877;-80
2023/06/26 02:43:45;;;;;;;12.80;7.70;;;;;;;15.29;72.32;100586.02;107111;1251;96594;-80
2023/06/26 02:46:32;;;;;;;9.60;7.10;;;;;;;15.24;71.98;100586.42;106932;1257;100988;-80
2023/06/26 02:49:17;;;;;;;12.60;7.90;;;;;;;15.18;72.13;100589.45;106829;1254;99305;-81
2023/06/26 02:52:04;;;;;;;10.70;7.50;;;;;;;15.16;72.28;100591.08;106939;1254;97834;-80
2023/06/26 02:54:50;;;;;;;11.10;8.20;;;;;;;15.15;72.55;100593.58;106872;1257;96507;-81
2023/06/26 02:57:36;;;;;;;13.00;8.50;;;;;;;15.13;72.21;100596.53;106940;1255;96432;-79
2023/06/26 03:00:22;;;;;;;14.10;7.70;;;;;;;15.14;73.23;100592.91;106925;1256;99988;-79
2023/06/26 03:03:09;;;;;;;14.40;6.90;;;;;;;15.31;74.13;100590.30;107858;1254;108913;-80
2023/06/26 03:05:55;;;;;;;10.60;7.30;;;;;;;15.46;73.42;100589.51;107148;1254;99018;-80
2023/06/26 03:08:41;;;;;;;12.50;8.00;;;;;;;15.50;72.48;100592.93;106947;1254;96584;-80
2023/06/26 03:11:26;;;;;;;11.60;7.70;;;;;;;15.44;72.10;100589.21;106955;1254;96523;-79
2023/06/26 03:14:12;;;;;;;11.20;8.20;;;;;;;15.37;72.02;100587.38;106730;1254;99956;-80
2023/06/26 03:16:59;;;;;;;12.80;8.20;;;;;;;15.29;72.05;100586.52;106907;1254;99220;-80
2023/06/26 03:19:45;;;;;;;10.60;8.10;;;;;;;15.22;72.22;100586.23;106364;1251;98926;-81
2023/06/26 03:22:38;;;;;;;12.80;8.10;;;;;;;15.18;72.61;100587.05;106671;1253;97270;-79
2023/06/26 03:25:24;;;;;;;11.60;7.70;;;;;;;15.13;72.98;100588.55;106861;1257;96588;-80
2023/06/26 03:28:15;;;;;;;17.20;8.20;;;;;;;15.12;73.04;100589.41;106807;1258;100004;-80
2023/06/26 03:31:01;;;;;;;12.70;8.30;;;;;;;15.12;73.22;100589.73;106409;1258;99261;-80
2023/06/26 03:33:47;;;;;;;10.70;7.80;;;;;;;15.13;73.45;100591.02;106824;1257;97682;-79
2023/06/26 03:36:32;;;;;;;12.60;8.90;;;;;;;15.11;73.68;100591.70;106423;1256;96632;-80
2023/06/26 03:39:19;;;;;;;14.70;9.10;;;;;;;15.05;73.95;100594.59;106875;1257;97008;-82
2023/06/26 03:42:07;;;;;;;8.70;7.00;;;;;;;14.93;74.08;100595.06;107051;1257;109887;-80
2023/06/26 03:44:52;;;;;;;11.10;7.70;;;;;;;14.76;73.94;100595.60;107072;1253;99053;-81
2023/06/26 03:47:38;;;;;;;9.80;7.80;;;;;;;14.59;74.65;100596.32;106941;1257;98622;-80
2023/06/26 03:50:24;;;;;;;11.60;8.10;;;;;;;14.55;75.41;100598.08;106947;1256;96529;-82
2023/06/26 03:53:11;;;;;;;12.40;8.70;;;;;;;14.54;76.47;100602.23;107046;1256;96433;-82
2023/06/26 03:55:59;;;;;;;15.30;10.10;;;;;;;14.56;76.91;100598.32;106977;1253;99976;-81
2023/06/26 03:58:44;;;;;;;11.90;9.20;;;;;;;14.62;77.77;100599.05;107032;1253;99070;-81
2023/06/26 04:01:30;;;;;;;13.90;9.80;;;;;;;14.69;78.36;100597.95;107112;1254;97735;-82
2023/06/26 04:04:15;;;;;;;10.80;8.90;;;;;;;14.79;78.53;100596.79;107075;1254;97221;-80
2023/06/26 04:07:01;;;;;;;15.40;10.10;;;;;;;14.89;78.86;100598.32;107065;1254;96600;-82
2023/06/26 04:09:46;;;;;;;15.00;10.20;;;;;;;15.02;79.29;100600.74;106926;1269;100909;-80
2023/06/26 04:12:31;;;;;;;13.60;10.70;;;;;;;15.14;79.46;100598.19;107036;1254;99137;-81
2023/06/26 04:15:17;;;;;;;13.80;9.90;;;;;;;15.26;79.49;100597.66;107186;1253;98946;-81
2023/06/26 04:18:03;;;;;;;15.60;10.10;;;;;;;15.39;79.66;100597.26;107010;1254;96605;-81
2023/06/26 04:21:11;;;;;;;12.80;10.50;;;;;;;15.53;79.87;100597.46;107018;1257;96584;-80
2023/06/26 04:23:56;;;;;;;15.80;11.10;;;;;;;15.68;79.63;100598.93;107015;1254;101691;-81
2023/06/26 04:26:42;;;;;;;12.20;9.80;;;;;;;15.83;79.88;100598.39;107159;1256;100364;-80
2023/06/26 04:29:27;;;;;;;13.90;10.10;;;;;;;15.96;80.41;100595.38;107150;1256;99047;-80
2023/06/26 04:32:13;;;;;;;12.10;10.10;;;;;;;16.08;80.35;100594.96;107029;1254;96486;-80
2023/06/26 04:34:58;;;;;;;16.30;10.50;;;;;;;16.19;80.20;100594.94;106233;1254;96981;-81
2023/06/26 04:37:45;;;;;;;15.40;10.70;;;;;;;16.32;80.17;100595.85;107073;1256;101772;-80
2023/06/26 04:40:30;;;;;;;12.00;9.00;;;;;;;16.44;79.96;100596.63;107400;1256;99087;-80
2023/06/26 04:43:16;;;;;;;15.70;9.20;;;;;;;16.55;79.63;100591.83;107240;1254;97735;-81
2023/06/26 04:46:03;;;;;;;14.50;9.60;;;;;;;16.67;79.33;100589.33;107154;1253;96779;-81
2023/06/26 04:48:48;;;;;;;12.30;9.10;;;;;;;16.80;79.32;100593.73;107179;1254;96579;-81
2023/06/26 04:51:40;;;;;;;14.10;10.60;;;;;;;16.90;79.11;100595.35;107143;1253;99995;-81
2023/06/26 04:54:27;;;;;;;13.60;9.40;;;;;;;17.03;79.12;100593.48;107179;1254;99075;-81
2023/06/26 04:57:14;;;;;;;14.30;9.60;;;;;;;17.15;79.13;100593.27;107972;1254;97748;-80
2023/06/26 05:00:00;;;;;;;11.50;8.80;;;;;;;17.27;78.79;100591.70;107205;1252;96596;-81
2023/06/26 05:02:46;;;;;;;16.60;9.40;;;;;;;17.39;78.44;100593.76;107385;1254;95873;-83
2023/06/26 05:05:31;;;;;;;11.80;9.20;;;;;;;17.52;78.09;100593.95;107411;1253;101688;-82
2023/06/26 05:08:26;;;;;;;12.70;8.60;;;;;;;17.64;77.87;100594.81;107064;1252;99650;-82
2023/06/26 05:11:11;;;;;;;16.50;9.10;;;;;;;17.78;78.30;100593.63;107223;1256;97708;-82
2023/06/26 05:13:57;;;;;;;13.30;8.30;;;;;;;17.89;78.34;100591.69;107182;1253;97044;-82
2023/06/26 05:16:43;;;;;;;12.70;8.50;;;;;;;17.99;78.03;100591.32;107161;1254;96698;-82
2023/06/26 05:19:28;;;;;;;11.80;8.90;;;;;;;18.09;78.24;100588.92;107313;1253;100004;-82
2023/06/26 05:22:14;;;;;;;12.60;8.80;;;;;;;18.20;78.31;100586.13;107245;1256;100288;-82
2023/06/26 05:25:01;;;;;;;10.20;7.90;;;;;;;18.31;78.39;100583.29;107098;1253;97433;-82
2023/06/26 05:27:48;;;;;;;13.00;8.40;;;;;;;18.41;78.06;100584.70;107218;1256;96584;-81
2023/06/26 05:30:35;;;;;;;12.60;9.00;;;;;;;18.49;77.21;100582.02;107240;1256;96408;-81
2023/06/26 05:33:23;;;;;;;14.50;9.70;;;;;;;18.58;77.00;100580.59;107373;1254;100032;-82
2023/06/26 05:36:09;;;;;;;11.70;8.40;;;;;;;18.69;77.18;100580.87;108394;1254;106783;-81
2023/06/26 05:38:56;;;;;;;11.70;8.10;;;;;;;18.80;77.08;100582.03;107199;1251;97789;-81
2023/06/26 05:41:44;;;;;;;11.40;8.20;;;;;;;18.93;76.89;100583.20;107200;1252;96795;-81
2023/06/26 05:44:30;;;;;;;9.50;7.80;;;;;;;19.05;76.72;100583.94;107301;1253;96594;-80
2023/06/26 05:47:15;;;;;;;13.00;7.80;;;;;;;19.17;76.79;100581.52;107111;1254;99970;-81
2023/06/26 05:50:01;;;;;;;10.40;8.30;;;;;;;19.30;76.12;100579.90;106884;1254;99082;-81
2023/06/26 05:52:47;;;;;;;14.20;8.20;;;;;;;19.42;75.42;100579.33;106811;1254;98576;-81
2023/06/26 05:55:33;;;;;;;14.50;8.40;;;;;;;19.54;75.26;100577.44;106645;1254;96520;-80
2023/06/26 05:58:20;;;;;;;12.40;8.70;;;;;;;19.67;75.09;100576.40;106688;1252;96482;-82
2023/06/26 06:01:05;;;;;;;11.20;8.00;;;;;;;19.80;75.41;100575.16;106732;1253;99879;-81
2023/06/26 06:03:51;;;;;;;10.00;7.60;;;;;;;19.93;74.78;100572.58;106711;1251;100364;-82
2023/06/26 06:06:37;;;;;;;13.90;7.90;;;;;;;20.07;75.11;100568.45;106652;1252;97949;-80
2023/06/26 06:09:22;;;;;;;11.10;7.90;;;;;;;20.21;73.91;100568.46;106740;1254;96687;-81
2023/06/26 06:12:08;;;;;;;8.80;7.50;;;;;;;20.34;74.12;100571.31;106720;1251;98228;-80
2023/06/26 06:14:53;;;;;;;11.80;7.60;;;;;;;20.46;72.88;100572.35;106686;1253;101150;-81
2023/06/26 06:17:39;;;;;;;9.70;7.20;;;;;;;20.56;72.12;100573.95;106768;1254;100455;-80
2023/06/26 06:20:25;;;;;;;9.10;7.10;;;;;;;20.68;72.37;100567.40;106779;1253;98983;-81
2023/06/26 06:23:10;;;;;;;10.60;7.80;;;;;;;20.82;72.46;100567.79;106845;1256;97773;-81
2023/06/26 06:25:56;;;;;;;10.10;6.60;;;;;;;20.94;71.20;100567.55;107229;1253;96536;-81
2023/06/26 06:28:41;;;;;;;10.40;6.90;;;;;;;21.08;70.96;100567.08;107246;1253;99972;-81
2023/06/26 06:31:30;;;;;;;10.90;7.50;;;;;;;21.22;70.15;100567.02;107227;1253;100193;-81
2023/06/26 06:34:15;;;;;;;12.60;8.50;;;;;;;21.35;70.36;100565.57;107165;1253;98823;-81
2023/06/26 06:37:02;;;;;;;11.30;7.40;;;;;;;21.51;70.09;100567.95;107152;1257;96396;-81
2023/06/26 06:39:48;;;;;;;10.40;6.90;;;;;;;21.60;69.65;100566.51;107170;1252;96402;-81
2023/06/26 06:42:34;;;;;;;11.90;7.20;;;;;;;21.70;68.99;100563.05;107153;1256;99952;-80
2023/06/26 06:45:19;;;;;;;10.60;6.30;;;;;;;21.84;68.44;100561.77;107067;1256;100375;-80
2023/06/26 06:48:05;;;;;;;8.50;6.90;;;;;;;21.95;67.59;100560.21;107064;1253;106443;-80
2023/06/26 06:50:51;;;;;;;8.30;5.60;;;;;;;22.00;67.23;100556.75;106953;1253;96878;-81
2023/06/26 06:53:36;;;;;;;9.30;7.30;;;;;;;22.12;67.42;100553.56;107022;1253;96517;-81
2023/06/26 06:56:22;;;;;;;7.60;6.50;;;;;;;22.18;66.71;100555.90;107084;1256;101642;-81
2023/06/26 06:59:08;;;;;;;7.40;6.10;;;;;;;22.21;66.33;100558.41;107092;1253;99178;-81
2023/06/26 07:01:53;;;;;;;10.30;6.40;;;;;;;22.28;64.86;100557.80;107218;1253;97744;-81
2023/06/26 07:04:39;;;;;;;7.90;5.90;;;;;;;22.35;63.67;100555.12;107095;1256;95938;-82
2023/06/26 07:07:28;;;;;;;7.80;6.30;;;;;;;22.43;64.41;100556.63;107017;1253;97204;-82
2023/06/26 07:10:14;;;;;;;9.20;6.60;;;;;;;22.54;64.30;100557.02;107191;1253;100549;-82
2023/06/26 07:13:00;;;;;;;9.40;7.20;;;;;;;22.61;63.67;100555.66;106776;1253;99082;-82
2023/06/26 07:15:47;;;;;;;10.90;8.00;;;;;;;22.67;63.60;100557.70;106782;1256;98967;-80
2023/06/26 07:18:33;;;;;;;7.80;7.10;;;;;;;22.73;63.80;100552.48;106697;1256;96524;-80
2023/06/26 07:21:18;;;;;;;7.90;6.30;;;;;;;22.83;63.16;100547.61;106731;1256;97916;-81
2023/06/26 07:24:04;;;;;;;8.90;6.20;;;;;;;22.90;63.02;100545.83;106433;1256;101741;-80
2023/06/26 07:26:49;;;;;;;7.50;6.40;;;;;;;22.98;62.24;100546.66;106475;1253;100312;-82
2023/06/26 07:29:35;;;;;;;9.60;6.50;;;;;;;23.00;61.58;100548.80;106775;1256;98132;-82
2023/06/26 07:32:21;;;;;;;10.90;6.70;;;;;;;23.06;61.64;100548.05;106701;1254;96623;-81
2023/06/26 07:35:06;;;;;;;8.90;6.30;;;;;;;23.11;61.18;100542.92;106659;1256;95812;-82
2023/06/26 07:37:52;;;;;;;6.70;6.00;;;;;;;23.14;60.76;100544.84;106507;1254;101335;-81
2023/06/26 07:40:37;;;;;;;7.50;5.40;;;;;;;23.18;61.32;100546.05;106755;1253;99670;-83
2023/06/26 07:43:23;;;;;;;6.90;6.20;;;;;;;23.26;61.39;100545.84;106478;1253;97861;-80
2023/06/26 07:46:09;;;;;;;9.80;5.70;;;;;;;23.32;60.66;100546.70;106457;1253;96521;-82
2023/06/26 07:48:54;;;;;;;7.70;6.40;;;;;;;23.37;60.47;100544.69;106724;1256;97045;-82
2023/06/26 07:51:40;;;;;;;7.00;5.30;;;;;;;23.44;60.79;100545.30;106680;1256;101226;-83
2023/06/26 07:54:25;;;;;;;7.50;5.70;;;;;;;23.51;60.61;100546.11;106566;1253;99109;-82
2023/06/26 07:57:12;;;;;;;6.40;5.50;;;;;;;23.59;59.97;100545.95;106377;1256;97727;-78
2023/06/26 07:59:58;;;;;;;7.00;6.00;;;;;;;23.67;59.16;100545.14;105717;1253;96612;-79
2023/06/26 08:02:43;;;;;;;7.60;5.60;;;;;;;23.72;58.81;100545.84;105569;1256;96542;-77
2023/06/26 08:05:29;;;;;;;12.40;5.70;;;;;;;23.81;59.29;100543.92;105994;1253;101288;-83
2023/06/26 08:08:15;;;;;;;7.90;5.40;;;;;;;23.90;59.17;100539.77;106244;1253;100232;-83
2023/06/26 08:11:01;;;;;;;6.20;5.00;;;;;;;23.98;57.85;100538.66;106289;1253;97899;-86
2023/06/26 08:13:47;;;;;;;5.40;4.70;;;;;;;24.06;57.64;100537.52;106154;1256;96598;-84
2023/06/26 08:16:33;;;;;;;6.80;5.10;;;;;;;24.15;58.15;100532.63;106187;1253;96553;-83
2023/06/26 08:19:18;;;;;;;6.80;5.20;;;;;;;24.26;59.11;100532.16;106556;1253;100151;-86
2023/06/26 08:22:05;;;;;;;5.90;5.20;;;;;;;24.39;59.49;100528.96;106155;1253;100337;-83
2023/06/26 08:24:50;;;;;;;5.20;4.60;;;;;;;24.52;58.45;100527.63;106216;1251;97828;-85
2023/06/26 08:27:36;;;;;;;5.50;4.30;;;;;;;24.63;57.72;100534.33;106585;1253;96674;-84
2023/06/26 08:30:22;;;;;;;5.60;4.90;;;;;;;24.69;54.79;100530.40;106256;1253;97119;-84
2023/06/26 08:33:12;;;;;;;4.90;4.40;;;;;;;24.72;53.64;100521.89;106226;1264;100810;-84
2023/06/26 08:35:58;;;;;;;5.30;4.40;;;;;;;24.77;53.63;100522.39;106120;1259;99097;-83
2023/06/26 08:38:43;;;;;;;4.70;4.10;;;;;;;24.86;53.34;100525.47;106339;1253;97699;-81
2023/06/26 08:41:29;;;;;;;5.50;3.70;;;;;;;24.91;51.36;100524.23;106609;1256;96523;-81
2023/06/26 08:44:14;;;;;;;5.60;4.10;;;;;;;24.95;50.80;100522.52;106747;1256;96502;-81
2023/06/26 08:47:00;;;;;;;5.60;3.90;;;;;;;25.00;49.83;100524.19;106825;1253;100566;-81
2023/06/26 08:49:58;;;;;;;4.70;4.00;;;;;;;25.06;49.68;100522.55;106587;1254;100404;-82
2023/06/26 08:52:55;;;;;;;5.80;4.10;;;;;;;25.14;50.11;100521.69;106555;1256;98522;-83
2023/06/26 08:55:42;;;;;;;3.70;3.40;;;;;;;25.20;48.68;100522.27;106711;1253;97875;-79
2023/06/26 08:58:28;;;;;;;3.80;3.40;;;;;;;25.23;47.73;100519.44;106690;1256;96547;-80
2023/06/26 09:01:14;;;;;;;3.80;3.30;;;;;;;25.28;46.81;100516.27;105988;1258;101184;-81
2023/06/26 09:04:00;;;;;;;3.30;3.00;;;;;;;25.33;46.13;100517.94;106192;1253;99093;-82
2023/06/26 09:06:45;;;;;;;3.50;2.90;;;;;;;25.41;46.29;100518.27;106218;1252;98830;-82
2023/06/26 09:09:31;;;;;;;4.30;3.40;;;;;;;25.49;46.23;100514.70;106475;1253;96545;-82
2023/06/26 09:12:17;;;;;;;4.30;3.40;;;;;;;25.57;46.03;100513.16;106307;1256;97167;-80
2023/06/26 09:15:05;;;;;;;4.50;3.60;;;;;;;25.65;46.41;100507.66;106511;1253;101242;-84
2023/06/26 09:17:56;;;;;;;8.40;3.70;;;;;;;25.78;46.75;100510.28;106138;1259;108030;-86
2023/06/26 09:20:42;;;;;;;5.70;3.40;;;;;;;25.87;46.21;100507.34;106282;1253;97711;-85
2023/06/26 09:23:28;;;;;;;4.50;3.10;;;;;;;25.92;45.50;100502.77;106498;1256;96712;-84
2023/06/26 09:26:14;;;;;;;4.50;3.30;;;;;;;25.99;44.89;100500.63;106677;1256;98267;-85
2023/06/26 09:29:00;;;;;;;4.20;3.00;;;;;;;25.99;44.80;100496.45;106568;1253;108788;-79
2023/06/26 09:31:46;;;;;;;4.00;3.60;;;;;;;26.02;45.52;100498.11;106632;1254;99134;-82
2023/06/26 09:34:34;;;;;;;5.60;3.30;;;;;;;26.09;45.40;100499.94;106494;1253;97716;-84
2023/06/26 09:37:19;;;;;;;4.30;3.10;;;;;;;26.13;43.46;100496.28;106275;1256;96612;-86
2023/06/26 09:40:05;;;;;;;6.70;3.50;;;;;;;26.14;42.99;100500.83;106370;1257;97150;-85
2023/06/26 09:42:51;;;;;;;4.20;2.70;;;;;;;26.19;42.83;100498.84;106281;1256;100056;-87
2023/06/26 09:45:36;;;;;;;3.10;2.80;;;;;;;26.19;42.01;100493.91;106481;1254;99095;-82
2023/06/26 09:48:22;;;;;;;4.00;2.90;;;;;;;26.23;42.07;100488.58;106438;1253;97658;-82
2023/06/26 09:51:07;;;;;;;4.30;3.20;;;;;;;26.32;43.51;100489.04;106460;1256;96807;-81
2023/06/26 09:53:53;;;;;;;3.50;3.00;;;;;;;26.42;43.02;100495.02;106572;1253;96607;-84
2023/06/26 09:56:39;;;;;;;4.30;3.10;;;;;;;26.48;42.26;100493.44;106471;1253;100583;-81
2023/06/26 09:59:24;;;;;;;4.10;3.10;;;;;;;26.48;40.98;100490.91;106553;1251;99082;-83
2023/06/26 10:02:12;;;;;;;3.50;3.00;;;;;;;26.47;40.70;100489.11;106075;1256;97599;-85
2023/06/26 10:04:58;;;;;;;3.70;2.80;;;;;;;26.53;41.26;100485.41;106216;1257;97149;-84
2023/06/26 10:07:45;;;;;;;4.10;3.50;;;;;;;26.62;41.00;100483.77;106415;1256;98365;-85
2023/06/26 10:10:33;;;;;;;4.00;2.70;;;;;;;26.68;41.17;100478.00;106348;1253;100703;-84
2023/06/26 10:13:27;;;;;;;3.30;3.00;;;;;;;26.76;41.49;100476.61;106208;1253;99169;-83
2023/06/26 10:16:25;;;;;;;3.70;3.20;;;;;;;26.86;41.35;100472.61;106149;1253;98449;-83
2023/06/26 10:19:13;;;;;;;3.10;2.80;;;;;;;26.91;40.25;100476.50;106406;1253;96629;-83
2023/06/26 10:22:01;;;;;;;4.40;3.40;;;;;;;26.92;40.00;100473.57;106602;1253;96440;-83
2023/06/26 10:24:52;;;;;;;3.10;2.70;;;;;;;26.95;40.85;100466.04;106486;1253;101363;-84
2023/06/26 10:27:41;;;;;;;;;;;;;;;27.00;40.30;100459.77;106536;1256;100307;-82
2023/06/26 10:30:31;;;;;;;4.50;2.70;;;;;;;27.04;40.30;100458.92;106465;1253;97788;-85
2023/06/26 10:33:17;;;;;;;5.10;3.30;;;;;;;27.08;41.27;100454.70;108585;1252;94156;-83
2023/06/26 10:36:18;;;;;;;3.50;3.20;;;;;;;27.17;40.88;100449.82;108601;1254;94379;-83
2023/06/26 10:39:05;;;;;;;4.30;3.30;;;;;;;27.22;40.01;100449.17;106305;1253;101304;-82
2023/06/26 10:41:54;;;;;;;4.80;3.10;;;;;;;27.16;39.72;100448.95;106453;1256;99113;-83
2023/06/26 10:44:44;;;;;;;12.40;4.10;;;;;;;27.10;40.35;100446.56;106367;1253;98226;-82
2023/06/26 10:47:31;;;;;;;4.70;3.50;;;;;;;27.10;40.51;100446.58;106439;1253;97503;-85
2023/06/26 10:50:31;;;;;;;3.90;2.90;;;;;;;27.13;40.30;100445.73;106516;1253;97102;-86
2023/06/26 10:53:27;;;;;;;5.00;3.40;;;;;;;27.16;40.03;100438.10;106244;1256;99971;-81
2023/06/26 10:56:13;;;;;;;4.10;3.40;;;;;;;27.24;40.66;100433.86;106350;1256;99055;-84
2023/06/26 10:59:30;;;;;;;3.80;3.50;;;;;;;27.27;40.28;100433.53;106330;1252;98987;-83
2023/06/26 11:02:16;;;;;;;6.70;3.30;;;;;;;27.20;40.33;100430.06;105837;1256;96958;-81
2023/06/26 11:05:05;;;;;;;4.90;3.30;;;;;;;27.15;40.54;100431.59;106547;1254;96603;-85
2023/06/26 11:08:15;;;;;;;6.90;3.60;;;;;;;27.10;40.16;100427.22;106375;1256;100198;-86
2023/06/26 11:11:01;;;;;;;5.20;3.50;;;;;;;27.08;40.06;100426.70;106188;1256;99310;-83
2023/06/26 11:13:48;;;;;;;4.40;3.60;;;;;;;27.12;40.42;100425.02;106437;1251;97734;-81
2023/06/26 11:16:34;;;;;;;6.00;3.40;;;;;;;27.21;41.40;100418.73;106338;1253;96609;-83
2023/06/26 11:19:20;;;;;;;4.50;3.70;;;;;;;27.33;40.63;100415.92;106433;1253;97940;-86
2023/06/26 11:22:06;;;;;;;6.70;3.60;;;;;;;27.42;39.99;100413.86;106569;1253;99864;-82
2023/06/26 11:24:53;;;;;;;6.20;3.90;;;;;;;27.47;39.37;100412.35;106597;1256;99535;-85
2023/06/26 11:27:43;;;;;;;6.80;3.40;;;;;;;27.50;39.36;100416.97;106321;1257;97687;-85
2023/06/26 11:30:29;;;;;;;9.30;3.70;;;;;;;27.55;39.71;100414.84;106185;1253;96616;-85
2023/06/26 11:33:14;;;;;;;3.90;3.50;;;;;;;27.66;40.17;100412.23;106204;1253;96614;-83
2023/06/26 11:36:08;;;;;;;3.80;3.20;;;;;;;27.76;40.22;100410.04;106392;1256;100033;-84
2023/06/26 11:38:59;;;;;;;4.20;3.60;;;;;;;27.76;39.82;100409.05;106340;1253;99194;-78
2023/06/26 11:41:45;;;;;;;6.40;3.40;;;;;;;27.65;39.28;100407.72;105601;1256;98995;-77
2023/06/26 11:44:31;;;;;;;3.70;3.40;;;;;;;27.63;39.10;100412.07;105752;1256;96597;-79
2023/06/26 11:47:19;;;;;;;4.20;3.80;;;;;;;27.62;38.66;100405.04;107411;1252;96788;-80
2023/06/26 11:50:05;;;;;;;4.30;3.70;;;;;;;27.69;38.98;100404.61;108626;1253;101789;-80
2023/06/26 11:52:57;;;;;;;4.10;3.60;;;;;;;27.81;39.38;100404.33;106563;1254;99062;-87
2023/06/26 11:55:43;;;;;;;6.90;3.50;;;;;;;27.89;38.68;100398.45;106308;1253;98788;-85
2023/06/26 11:58:29;;;;;;;5.30;3.50;;;;;;;27.95;38.85;100396.56;106170;1252;98033;-79
2023/06/26 12:01:17;;;;;;;3.50;3.00;;;;;;;28.00;38.96;100395.16;106416;1257;96504;-81
2023/06/26 12:04:05;;;;;;;4.20;3.40;;;;;;;28.06;38.78;100396.42;106286;1257;101240;-79
2023/06/26 12:06:57;;;;;;;3.70;3.30;;;;;;;28.08;38.46;100388.05;105756;1256;99122;-84
2023/06/26 12:09:45;;;;;;;4.10;3.40;;;;;;;28.16;38.94;100377.88;106103;1253;98956;-85
2023/06/26 12:12:31;;;;;;;4.10;3.70;;;;;;;28.27;39.48;100378.13;106685;1256;96568;-82
2023/06/26 12:15:17;;;;;;;9.60;4.20;;;;;;;28.40;39.21;100378.55;106417;1253;97060;-82
2023/06/26 12:18:09;;;;;;;8.50;4.20;;;;;;;28.47;37.77;100379.83;106586;1253;100002;-82
2023/06/26 12:20:54;;;;;;;7.30;4.30;;;;;;;28.50;38.05;100373.91;106641;1253;100819;-80
2023/06/26 12:23:40;;;;;;;3.80;3.50;;;;;;;28.52;37.25;100374.31;106616;1251;97897;-86
2023/06/26 12:26:27;;;;;;;3.80;3.40;;;;;;;28.50;37.17;100370.11;106145;1260;96619;-85
2023/06/26 12:29:17;;;;;;;3.80;3.30;;;;;;;28.61;37.56;100364.30;106214;1254;96961;-84
2023/06/26 12:32:03;;;;;;;3.50;3.00;;;;;;;28.66;37.42;100362.75;106483;1254;99980;-82
2023/06/26 12:34:53;;;;;;;3.50;3.20;;;;;;;28.58;37.06;100361.94;106082;1256;108032;-86
2023/06/26 12:37:42;;;;;;;5.80;3.60;;;;;;;28.59;36.02;100364.68;106261;1253;97699;-85
2023/06/26 12:40:27;;;;;;;3.60;2.90;;;;;;;28.62;35.66;100354.98;106229;1252;96686;-80
2023/06/26 12:43:23;;;;;;;4.90;3.20;;;;;;;28.71;35.88;100356.09;105559;1259;96561;-78